sensor_id;sensor_type;location;lat;lon;timestamp;temperature;humidity
27858;DHT22;16852;51.446;6.528;2023-08-07T00:00:45;14.70;99.90
27858;DHT22;16852;51.446;6.528;2023-08-07T00:02:45;14.70;99.90
27858;DHT22;16852;51.446;6.528;2023-08-07T00:04:46;14.60;99.90
27858;DHT22;16852;51.446;6.528;2023-08-07T00:06:47;14.70;99.90
27858;DHT22;16852;51.446;6.528;2023-08-07T00:08:48;14.70;99.90
27858;DHT22;16852;51.446;6.528;2023-08-07T00:10:48;14.70;99.90
27858;DHT22;16852;51.446;6.528;2023-08-07T00:12:49;14.70;99.90
27858;DHT22;16852;51.446;6.528;2023-08-07T00:14:50;14.60;99.90
27858;DHT22;16852;51.446;6.528;2023-08-07T00:16:51;14.60;99.90
27858;DHT22;16852;51.446;6.528;2023-08-07T00:18:52;14.60;99.90
27858;DHT22;16852;51.446;6.528;2023-08-07T00:20:56;14.70;99.90
27858;DHT22;16852;51.446;6.528;2023-08-07T00:22:57;14.70;99.90
27858;DHT22;16852;51.446;6.528;2023-08-07T00:24:57;14.60;99.90
27858;DHT22;16852;51.446;6.528;2023-08-07T00:26:58;14.70;99.90
27858;DHT22;16852;51.446;6.528;2023-08-07T00:28:59;14.70;99.90
27858;DHT22;16852;51.446;6.528;2023-08-07T00:31:02;14.60;99.90
27858;DHT22;16852;51.446;6.528;2023-08-07T00:33:03;14.70;99.90
27858;DHT22;16852;51.446;6.528;2023-08-07T00:35:05;14.60;99.90
27858;DHT22;16852;51.446;6.528;2023-08-07T00:37:06;14.70;99.90
27858;DHT22;16852;51.446;6.528;2023-08-07T00:39:07;14.70;99.90
27858;DHT22;16852;51.446;6.528;2023-08-07T00:41:08;14.70;99.90
27858;DHT22;16852;51.446;6.528;2023-08-07T00:43:10;14.70;99.90
27858;DHT22;16852;51.446;6.528;2023-08-07T00:45:11;14.60;99.90
27858;DHT22;16852;51.446;6.528;2023-08-07T00:47:11;14.60;99.90
27858;DHT22;16852;51.446;6.528;2023-08-07T00:49:12;14.60;99.90
27858;DHT22;16852;51.446;6.528;2023-08-07T00:51:14;14.60;99.90
27858;DHT22;16852;51.446;6.528;2023-08-07T00:53:15;14.60;99.90
27858;DHT22;16852;51.446;6.528;2023-08-07T00:55:17;14.60;99.90
27858;DHT22;16852;51.446;6.528;2023-08-07T00:57:18;14.60;99.90
27858;DHT22;16852;51.446;6.528;2023-08-07T00:59:23;14.70;99.90
27858;DHT22;16852;51.446;6.528;2023-08-07T01:01:24;14.70;99.90
27858;DHT22;16852;51.446;6.528;2023-08-07T01:03:25;14.70;99.90
27858;DHT22;16852;51.446;6.528;2023-08-07T01:05:26;14.70;99.90
27858;DHT22;16852;51.446;6.528;2023-08-07T01:07:27;14.70;99.90
27858;DHT22;16852;51.446;6.528;2023-08-07T01:09:27;14.70;99.90
27858;DHT22;16852;51.446;6.528;2023-08-07T01:11:36;14.70;99.90
27858;DHT22;16852;51.446;6.528;2023-08-07T01:13:55;14.70;99.90
27858;DHT22;16852;51.446;6.528;2023-08-07T01:16:02;14.70;99.90
27858;DHT22;16852;51.446;6.528;2023-08-07T01:18:08;14.70;99.90
27858;DHT22;16852;51.446;6.528;2023-08-07T01:20:09;14.70;99.90
27858;DHT22;16852;51.446;6.528;2023-08-07T01:22:13;14.70;99.90
27858;DHT22;16852;51.446;6.528;2023-08-07T01:24:14;14.60;99.90
27858;DHT22;16852;51.446;6.528;2023-08-07T01:26:16;14.60;99.90
27858;DHT22;16852;51.446;6.528;2023-08-07T01:28:26;14.50;99.90
27858;DHT22;16852;51.446;6.528;2023-08-07T01:30:37;14.40;99.90
27858;DHT22;16852;51.446;6.528;2023-08-07T01:32:57;14.40;99.90
27858;DHT22;16852;51.446;6.528;2023-08-07T01:35:04;14.40;99.90
27858;DHT22;16852;51.446;6.528;2023-08-07T01:37:06;14.30;99.90
27858;DHT22;16852;51.446;6.528;2023-08-07T01:39:08;14.30;99.90
27858;DHT22;16852;51.446;6.528;2023-08-07T01:41:09;14.30;99.90
27858;DHT22;16852;51.446;6.528;2023-08-07T01:43:10;14.30;99.90
27858;DHT22;16852;51.446;6.528;2023-08-07T01:45:10;14.30;99.90
27858;DHT22;16852;51.446;6.528;2023-08-07T01:47:11;14.30;99.90
27858;DHT22;16852;51.446;6.528;2023-08-07T01:49:12;14.30;99.90
27858;DHT22;16852;51.446;6.528;2023-08-07T01:51:12;14.20;99.90
27858;DHT22;16852;51.446;6.528;2023-08-07T01:53:13;14.30;99.90
27858;DHT22;16852;51.446;6.528;2023-08-07T01:55:15;14.20;99.90
27858;DHT22;16852;51.446;6.528;2023-08-07T01:57:16;14.20;99.90
27858;DHT22;16852;51.446;6.528;2023-08-07T01:59:16;14.30;99.90
27858;DHT22;16852;51.446;6.528;2023-08-07T02:01:17;14.30;99.90
27858;DHT22;16852;51.446;6.528;2023-08-07T02:03:18;14.30;99.90
27858;DHT22;16852;51.446;6.528;2023-08-07T02:05:19;14.20;99.90
27858;DHT22;16852;51.446;6.528;2023-08-07T02:07:19;14.20;99.90
27858;DHT22;16852;51.446;6.528;2023-08-07T02:09:20;14.20;99.90
27858;DHT22;16852;51.446;6.528;2023-08-07T02:11:21;14.20;99.90
27858;DHT22;16852;51.446;6.528;2023-08-07T02:13:22;14.20;99.90
27858;DHT22;16852;51.446;6.528;2023-08-07T02:15:22;14.30;99.90
27858;DHT22;16852;51.446;6.528;2023-08-07T02:17:28;14.20;99.90
27858;DHT22;16852;51.446;6.528;2023-08-07T02:19:30;14.30;99.90
27858;DHT22;16852;51.446;6.528;2023-08-07T02:21:31;14.30;99.90
27858;DHT22;16852;51.446;6.528;2023-08-07T02:23:32;14.30;99.90
27858;DHT22;16852;51.446;6.528;2023-08-07T02:25:34;14.30;99.90
27858;DHT22;16852;51.446;6.528;2023-08-07T02:27:34;14.30;99.90
27858;DHT22;16852;51.446;6.528;2023-08-07T02:29:35;14.40;99.90
27858;DHT22;16852;51.446;6.528;2023-08-07T02:31:35;14.30;99.90
27858;DHT22;16852;51.446;6.528;2023-08-07T02:33:36;14.40;99.90
27858;DHT22;16852;51.446;6.528;2023-08-07T02:35:37;14.40;99.90
27858;DHT22;16852;51.446;6.528;2023-08-07T02:37:37;14.40;99.90
27858;DHT22;16852;51.446;6.528;2023-08-07T02:39:38;14.40;99.90
27858;DHT22;16852;51.446;6.528;2023-08-07T02:41:39;14.40;99.90
27858;DHT22;16852;51.446;6.528;2023-08-07T02:43:39;14.40;99.90
27858;DHT22;16852;51.446;6.528;2023-08-07T02:45:40;14.40;99.90
27858;DHT22;16852;51.446;6.528;2023-08-07T02:47:40;14.30;99.90
27858;DHT22;16852;51.446;6.528;2023-08-07T02:49:41;14.40;99.90
27858;DHT22;16852;51.446;6.528;2023-08-07T02:51:42;14.40;99.90
27858;DHT22;16852;51.446;6.528;2023-08-07T02:53:42;14.30;99.90
27858;DHT22;16852;51.446;6.528;2023-08-07T02:55:46;14.30;99.90
27858;DHT22;16852;51.446;6.528;2023-08-07T02:57:46;14.30;99.90
27858;DHT22;16852;51.446;6.528;2023-08-07T02:59:47;14.30;99.90
27858;DHT22;16852;51.446;6.528;2023-08-07T03:01:48;14.30;99.90
27858;DHT22;16852;51.446;6.528;2023-08-07T03:03:48;14.30;99.90
27858;DHT22;16852;51.446;6.528;2023-08-07T03:05:50;14.30;99.90
27858;DHT22;16852;51.446;6.528;2023-08-07T03:07:50;14.30;99.90
27858;DHT22;16852;51.446;6.528;2023-08-07T03:09:51;14.30;99.90
27858;DHT22;16852;51.446;6.528;2023-08-07T03:11:52;14.40;99.90
27858;DHT22;16852;51.446;6.528;2023-08-07T03:13:52;14.40;99.90
27858;DHT22;16852;51.446;6.528;2023-08-07T03:16:04;14.30;99.90
27858;DHT22;16852;51.446;6.528;2023-08-07T03:18:04;14.30;99.90
27858;DHT22;16852;51.446;6.528;2023-08-07T03:20:05;14.40;99.90
27858;DHT22;16852;51.446;6.528;2023-08-07T03:22:06;14.40;99.90
27858;DHT22;16852;51.446;6.528;2023-08-07T03:24:07;14.40;99.90
27858;DHT22;16852;51.446;6.528;2023-08-07T03:26:10;14.40;99.90
27858;DHT22;16852;51.446;6.528;2023-08-07T03:28:11;14.40;99.90
27858;DHT22;16852;51.446;6.528;2023-08-07T03:30:11;14.40;99.90
27858;DHT22;16852;51.446;6.528;2023-08-07T03:32:12;14.50;99.90
27858;DHT22;16852;51.446;6.528;2023-08-07T03:34:13;14.40;99.90
27858;DHT22;16852;51.446;6.528;2023-08-07T03:36:13;14.40;99.90
27858;DHT22;16852;51.446;6.528;2023-08-07T03:38:14;14.40;99.90
27858;DHT22;16852;51.446;6.528;2023-08-07T03:40:15;14.40;99.90
27858;DHT22;16852;51.446;6.528;2023-08-07T03:42:15;14.40;99.90
27858;DHT22;16852;51.446;6.528;2023-08-07T03:44:16;14.40;99.90
27858;DHT22;16852;51.446;6.528;2023-08-07T03:46:17;14.40;99.90
27858;DHT22;16852;51.446;6.528;2023-08-07T03:48:17;14.40;99.90
27858;DHT22;16852;51.446;6.528;2023-08-07T03:50:18;14.40;99.90
27858;DHT22;16852;51.446;6.528;2023-08-07T03:52:18;14.40;99.90
27858;DHT22;16852;51.446;6.528;2023-08-07T03:54:19;14.40;99.90
27858;DHT22;16852;51.446;6.528;2023-08-07T03:56:20;14.40;99.90
27858;DHT22;16852;51.446;6.528;2023-08-07T03:58:20;14.40;99.90
27858;DHT22;16852;51.446;6.528;2023-08-07T04:00:21;14.40;99.90
27858;DHT22;16852;51.446;6.528;2023-08-07T04:02:21;14.40;99.90
27858;DHT22;16852;51.446;6.528;2023-08-07T04:04:22;14.50;99.90
27858;DHT22;16852;51.446;6.528;2023-08-07T04:06:23;14.40;99.90
27858;DHT22;16852;51.446;6.528;2023-08-07T04:08:23;14.50;99.90
27858;DHT22;16852;51.446;6.528;2023-08-07T04:10:24;14.40;99.90
27858;DHT22;16852;51.446;6.528;2023-08-07T04:12:25;14.40;99.90
27858;DHT22;16852;51.446;6.528;2023-08-07T04:14:26;14.40;99.90
27858;DHT22;16852;51.446;6.528;2023-08-07T04:16:26;14.40;99.90
27858;DHT22;16852;51.446;6.528;2023-08-07T04:18:27;14.40;99.90
27858;DHT22;16852;51.446;6.528;2023-08-07T04:20:27;14.40;99.90
27858;DHT22;16852;51.446;6.528;2023-08-07T04:22:28;14.40;99.90
27858;DHT22;16852;51.446;6.528;2023-08-07T04:24:29;14.40;99.90
27858;DHT22;16852;51.446;6.528;2023-08-07T04:26:29;14.40;99.90
27858;DHT22;16852;51.446;6.528;2023-08-07T04:28:30;14.40;99.90
27858;DHT22;16852;51.446;6.528;2023-08-07T04:30:30;14.40;99.90
27858;DHT22;16852;51.446;6.528;2023-08-07T04:32:31;14.40;99.90
27858;DHT22;16852;51.446;6.528;2023-08-07T04:34:31;14.40;99.90
27858;DHT22;16852;51.446;6.528;2023-08-07T04:36:32;14.40;99.90
27858;DHT22;16852;51.446;6.528;2023-08-07T04:38:33;14.40;99.90
27858;DHT22;16852;51.446;6.528;2023-08-07T04:40:34;14.40;99.90
27858;DHT22;16852;51.446;6.528;2023-08-07T04:42:35;14.40;99.90
27858;DHT22;16852;51.446;6.528;2023-08-07T04:44:35;14.40;99.90
27858;DHT22;16852;51.446;6.528;2023-08-07T04:46:36;14.40;99.90
27858;DHT22;16852;51.446;6.528;2023-08-07T04:48:36;14.40;99.90
27858;DHT22;16852;51.446;6.528;2023-08-07T04:50:37;14.40;99.90
27858;DHT22;16852;51.446;6.528;2023-08-07T04:52:38;14.40;99.90
27858;DHT22;16852;51.446;6.528;2023-08-07T04:54:39;14.30;99.90
27858;DHT22;16852;51.446;6.528;2023-08-07T04:56:39;14.30;99.90
27858;DHT22;16852;51.446;6.528;2023-08-07T04:58:42;14.30;99.90
27858;DHT22;16852;51.446;6.528;2023-08-07T05:00:43;14.30;99.90
27858;DHT22;16852;51.446;6.528;2023-08-07T05:02:43;14.30;99.90
27858;DHT22;16852;51.446;6.528;2023-08-07T05:04:44;14.30;99.90
27858;DHT22;16852;51.446;6.528;2023-08-07T05:06:45;14.30;99.90
27858;DHT22;16852;51.446;6.528;2023-08-07T05:08:46;14.20;99.90
27858;DHT22;16852;51.446;6.528;2023-08-07T05:10:46;14.30;99.90
27858;DHT22;16852;51.446;6.528;2023-08-07T05:12:47;14.30;99.90
27858;DHT22;16852;51.446;6.528;2023-08-07T05:14:48;14.30;99.90
27858;DHT22;16852;51.446;6.528;2023-08-07T05:16:48;14.30;99.90
27858;DHT22;16852;51.446;6.528;2023-08-07T05:18:49;14.20;99.90
27858;DHT22;16852;51.446;6.528;2023-08-07T05:20:50;14.20;99.90
27858;DHT22;16852;51.446;6.528;2023-08-07T05:22:50;14.30;99.90
27858;DHT22;16852;51.446;6.528;2023-08-07T05:24:51;14.20;99.90
27858;DHT22;16852;51.446;6.528;2023-08-07T05:26:52;14.20;99.90
27858;DHT22;16852;51.446;6.528;2023-08-07T05:28:52;14.20;99.90
27858;DHT22;16852;51.446;6.528;2023-08-07T05:30:54;14.20;99.90
27858;DHT22;16852;51.446;6.528;2023-08-07T05:32:55;14.20;99.90
27858;DHT22;16852;51.446;6.528;2023-08-07T05:34:56;14.20;99.90
27858;DHT22;16852;51.446;6.528;2023-08-07T05:36:57;14.10;99.90
27858;DHT22;16852;51.446;6.528;2023-08-07T05:38:58;14.10;99.90
27858;DHT22;16852;51.446;6.528;2023-08-07T05:40:58;14.10;99.90
27858;DHT22;16852;51.446;6.528;2023-08-07T05:42:59;14.10;99.90
27858;DHT22;16852;51.446;6.528;2023-08-07T05:45:00;14.10;99.90
27858;DHT22;16852;51.446;6.528;2023-08-07T05:47:00;14.10;99.90
27858;DHT22;16852;51.446;6.528;2023-08-07T05:49:01;14.00;99.90
27858;DHT22;16852;51.446;6.528;2023-08-07T05:51:01;14.00;99.90
27858;DHT22;16852;51.446;6.528;2023-08-07T05:53:02;14.00;99.90
27858;DHT22;16852;51.446;6.528;2023-08-07T05:55:04;14.00;99.90
27858;DHT22;16852;51.446;6.528;2023-08-07T05:57:05;14.00;99.90
27858;DHT22;16852;51.446;6.528;2023-08-07T05:59:06;14.00;99.90
27858;DHT22;16852;51.446;6.528;2023-08-07T06:01:06;14.00;99.90
27858;DHT22;16852;51.446;6.528;2023-08-07T06:03:07;14.00;99.90
27858;DHT22;16852;51.446;6.528;2023-08-07T06:05:08;14.00;99.90
27858;DHT22;16852;51.446;6.528;2023-08-07T06:07:10;14.00;99.90
27858;DHT22;16852;51.446;6.528;2023-08-07T06:09:10;14.00;99.90
27858;DHT22;16852;51.446;6.528;2023-08-07T06:11:11;14.00;99.90
27858;DHT22;16852;51.446;6.528;2023-08-07T06:13:12;14.00;99.90
27858;DHT22;16852;51.446;6.528;2023-08-07T06:15:12;14.00;99.90
27858;DHT22;16852;51.446;6.528;2023-08-07T06:17:13;14.00;99.90
27858;DHT22;16852;51.446;6.528;2023-08-07T06:19:14;14.00;99.90
27858;DHT22;16852;51.446;6.528;2023-08-07T06:21:15;14.00;99.90
27858;DHT22;16852;51.446;6.528;2023-08-07T06:23:16;14.00;99.90
27858;DHT22;16852;51.446;6.528;2023-08-07T06:25:17;14.00;99.90
27858;DHT22;16852;51.446;6.528;2023-08-07T06:27:20;14.00;99.90
27858;DHT22;16852;51.446;6.528;2023-08-07T06:29:21;14.10;99.90
27858;DHT22;16852;51.446;6.528;2023-08-07T06:31:22;14.10;99.90
27858;DHT22;16852;51.446;6.528;2023-08-07T06:33:22;14.10;99.90
27858;DHT22;16852;51.446;6.528;2023-08-07T06:35:23;14.10;99.90
27858;DHT22;16852;51.446;6.528;2023-08-07T06:37:23;14.10;99.90
27858;DHT22;16852;51.446;6.528;2023-08-07T06:39:24;14.20;99.90
27858;DHT22;16852;51.446;6.528;2023-08-07T06:41:25;14.20;99.90
27858;DHT22;16852;51.446;6.528;2023-08-07T06:43:26;14.20;99.90
27858;DHT22;16852;51.446;6.528;2023-08-07T06:45:27;14.20;99.90
27858;DHT22;16852;51.446;6.528;2023-08-07T06:47:27;14.20;99.90
27858;DHT22;16852;51.446;6.528;2023-08-07T06:49:28;14.20;99.90
27858;DHT22;16852;51.446;6.528;2023-08-07T06:51:29;14.10;99.90
27858;DHT22;16852;51.446;6.528;2023-08-07T06:53:30;14.10;99.90
27858;DHT22;16852;51.446;6.528;2023-08-07T06:55:30;14.20;99.90
27858;DHT22;16852;51.446;6.528;2023-08-07T06:57:31;14.20;99.90
27858;DHT22;16852;51.446;6.528;2023-08-07T06:59:31;14.20;99.90
27858;DHT22;16852;51.446;6.528;2023-08-07T07:01:32;14.10;99.90
27858;DHT22;16852;51.446;6.528;2023-08-07T07:03:33;14.20;99.90
27858;DHT22;16852;51.446;6.528;2023-08-07T07:05:34;14.20;99.90
27858;DHT22;16852;51.446;6.528;2023-08-07T07:07:38;14.20;99.90
27858;DHT22;16852;51.446;6.528;2023-08-07T07:09:38;14.20;99.90
27858;DHT22;16852;51.446;6.528;2023-08-07T07:11:39;14.20;99.90
27858;DHT22;16852;51.446;6.528;2023-08-07T07:13:40;14.20;99.90
27858;DHT22;16852;51.446;6.528;2023-08-07T07:15:41;14.20;99.90
27858;DHT22;16852;51.446;6.528;2023-08-07T07:17:42;14.20;99.90
27858;DHT22;16852;51.446;6.528;2023-08-07T07:19:43;14.20;99.90
27858;DHT22;16852;51.446;6.528;2023-08-07T07:21:43;14.20;99.90
27858;DHT22;16852;51.446;6.528;2023-08-07T07:23:44;14.20;99.90
27858;DHT22;16852;51.446;6.528;2023-08-07T07:25:45;14.20;99.90
27858;DHT22;16852;51.446;6.528;2023-08-07T07:27:47;14.20;99.90
27858;DHT22;16852;51.446;6.528;2023-08-07T07:29:48;14.20;99.90
27858;DHT22;16852;51.446;6.528;2023-08-07T07:31:50;14.20;99.90
27858;DHT22;16852;51.446;6.528;2023-08-07T07:33:50;14.20;99.90
27858;DHT22;16852;51.446;6.528;2023-08-07T07:35:51;14.20;99.90
27858;DHT22;16852;51.446;6.528;2023-08-07T07:37:51;14.30;99.90
27858;DHT22;16852;51.446;6.528;2023-08-07T07:39:52;14.30;99.90
27858;DHT22;16852;51.446;6.528;2023-08-07T07:41:53;14.30;99.90
27858;DHT22;16852;51.446;6.528;2023-08-07T07:43:53;14.30;99.90
27858;DHT22;16852;51.446;6.528;2023-08-07T07:45:54;14.40;99.90
27858;DHT22;16852;51.446;6.528;2023-08-07T07:47:55;14.40;99.90
27858;DHT22;16852;51.446;6.528;2023-08-07T07:50:07;14.50;99.90
27858;DHT22;16852;51.446;6.528;2023-08-07T07:52:08;14.50;99.90
27858;DHT22;16852;51.446;6.528;2023-08-07T07:54:09;14.50;99.90
27858;DHT22;16852;51.446;6.528;2023-08-07T07:56:10;14.60;99.90
27858;DHT22;16852;51.446;6.528;2023-08-07T07:58:10;14.60;99.90
27858;DHT22;16852;51.446;6.528;2023-08-07T08:00:12;14.60;99.90
27858;DHT22;16852;51.446;6.528;2023-08-07T08:02:13;14.60;99.90
27858;DHT22;16852;51.446;6.528;2023-08-07T08:04:16;14.70;99.90
27858;DHT22;16852;51.446;6.528;2023-08-07T08:06:16;14.70;99.90
27858;DHT22;16852;51.446;6.528;2023-08-07T08:08:17;14.70;99.90
27858;DHT22;16852;51.446;6.528;2023-08-07T08:10:18;14.80;99.90
27858;DHT22;16852;51.446;6.528;2023-08-07T08:12:18;14.80;99.90
27858;DHT22;16852;51.446;6.528;2023-08-07T08:14:19;14.80;99.90
27858;DHT22;16852;51.446;6.528;2023-08-07T08:16:20;14.90;99.90
27858;DHT22;16852;51.446;6.528;2023-08-07T08:18:20;14.90;99.90
27858;DHT22;16852;51.446;6.528;2023-08-07T08:20:21;15.00;99.90
27858;DHT22;16852;51.446;6.528;2023-08-07T08:22:22;15.00;99.90
27858;DHT22;16852;51.446;6.528;2023-08-07T08:24:22;15.10;99.90
27858;DHT22;16852;51.446;6.528;2023-08-07T08:26:23;15.20;99.90
27858;DHT22;16852;51.446;6.528;2023-08-07T08:28:24;15.20;99.90
27858;DHT22;16852;51.446;6.528;2023-08-07T08:30:24;15.20;99.90
27858;DHT22;16852;51.446;6.528;2023-08-07T08:32:25;15.30;99.90
27858;DHT22;16852;51.446;6.528;2023-08-07T08:34:27;15.30;99.90
27858;DHT22;16852;51.446;6.528;2023-08-07T08:36:28;15.30;99.90
27858;DHT22;16852;51.446;6.528;2023-08-07T08:38:28;15.40;99.90
27858;DHT22;16852;51.446;6.528;2023-08-07T08:40:34;15.50;99.90
27858;DHT22;16852;51.446;6.528;2023-08-07T08:42:35;15.60;99.90
27858;DHT22;16852;51.446;6.528;2023-08-07T08:44:39;15.70;99.90
27858;DHT22;16852;51.446;6.528;2023-08-07T08:46:42;15.80;99.90
27858;DHT22;16852;51.446;6.528;2023-08-07T08:48:47;15.90;99.90
27858;DHT22;16852;51.446;6.528;2023-08-07T08:50:50;16.00;99.90
27858;DHT22;16852;51.446;6.528;2023-08-07T08:52:53;16.00;99.90
27858;DHT22;16852;51.446;6.528;2023-08-07T08:54:56;16.10;99.90
27858;DHT22;16852;51.446;6.528;2023-08-07T08:56:57;16.00;99.90
27858;DHT22;16852;51.446;6.528;2023-08-07T08:59:00;16.10;99.90
27858;DHT22;16852;51.446;6.528;2023-08-07T09:01:01;16.10;99.90
27858;DHT22;16852;51.446;6.528;2023-08-07T09:03:02;16.10;99.90
27858;DHT22;16852;51.446;6.528;2023-08-07T09:05:03;16.00;99.90
27858;DHT22;16852;51.446;6.528;2023-08-07T09:07:05;16.00;99.90
27858;DHT22;16852;51.446;6.528;2023-08-07T09:09:07;16.00;99.90
27858;DHT22;16852;51.446;6.528;2023-08-07T09:11:10;15.90;99.90
27858;DHT22;16852;51.446;6.528;2023-08-07T09:13:14;16.00;99.90
27858;DHT22;16852;51.446;6.528;2023-08-07T09:15:16;16.00;99.90
27858;DHT22;16852;51.446;6.528;2023-08-07T09:17:18;16.00;99.90
27858;DHT22;16852;51.446;6.528;2023-08-07T09:19:19;16.00;99.90
27858;DHT22;16852;51.446;6.528;2023-08-07T09:21:20;15.90;99.90
27858;DHT22;16852;51.446;6.528;2023-08-07T09:23:21;15.80;99.90
27858;DHT22;16852;51.446;6.528;2023-08-07T09:25:29;15.80;99.90
27858;DHT22;16852;51.446;6.528;2023-08-07T09:27:31;15.80;99.90
27858;DHT22;16852;51.446;6.528;2023-08-07T09:29:31;15.80;99.90
27858;DHT22;16852;51.446;6.528;2023-08-07T09:31:32;15.80;99.90
27858;DHT22;16852;51.446;6.528;2023-08-07T09:33:33;15.90;99.90
27858;DHT22;16852;51.446;6.528;2023-08-07T09:35:33;15.90;99.90
27858;DHT22;16852;51.446;6.528;2023-08-07T09:37:36;16.00;99.90
27858;DHT22;16852;51.446;6.528;2023-08-07T09:39:37;16.00;99.90
27858;DHT22;16852;51.446;6.528;2023-08-07T09:41:38;16.10;99.90
27858;DHT22;16852;51.446;6.528;2023-08-07T09:43:38;16.20;99.90
27858;DHT22;16852;51.446;6.528;2023-08-07T09:45:40;16.30;99.90
27858;DHT22;16852;51.446;6.528;2023-08-07T09:47:40;16.40;99.90
27858;DHT22;16852;51.446;6.528;2023-08-07T09:49:42;16.50;99.90
27858;DHT22;16852;51.446;6.528;2023-08-07T09:51:47;16.70;99.90
27858;DHT22;16852;51.446;6.528;2023-08-07T09:53:48;16.80;99.90
27858;DHT22;16852;51.446;6.528;2023-08-07T09:55:52;16.90;99.90
27858;DHT22;16852;51.446;6.528;2023-08-07T09:57:53;17.10;99.90
27858;DHT22;16852;51.446;6.528;2023-08-07T09:59:54;17.20;99.90
27858;DHT22;16852;51.446;6.528;2023-08-07T10:01:55;17.30;99.90
27858;DHT22;16852;51.446;6.528;2023-08-07T10:03:57;17.40;99.90
27858;DHT22;16852;51.446;6.528;2023-08-07T10:05:58;17.50;99.90
27858;DHT22;16852;51.446;6.528;2023-08-07T10:07:59;17.60;99.90
27858;DHT22;16852;51.446;6.528;2023-08-07T10:10:01;17.70;99.90
27858;DHT22;16852;51.446;6.528;2023-08-07T10:12:02;17.80;99.90
27858;DHT22;16852;51.446;6.528;2023-08-07T10:14:04;17.80;99.90
27858;DHT22;16852;51.446;6.528;2023-08-07T10:16:04;17.90;99.90
27858;DHT22;16852;51.446;6.528;2023-08-07T10:18:05;18.00;99.90
27858;DHT22;16852;51.446;6.528;2023-08-07T10:20:06;18.00;99.90
27858;DHT22;16852;51.446;6.528;2023-08-07T10:22:08;18.00;99.90
27858;DHT22;16852;51.446;6.528;2023-08-07T10:24:10;18.00;99.90
27858;DHT22;16852;51.446;6.528;2023-08-07T10:26:11;18.10;99.90
27858;DHT22;16852;51.446;6.528;2023-08-07T10:28:14;18.10;99.90
27858;DHT22;16852;51.446;6.528;2023-08-07T10:30:18;18.00;99.90
27858;DHT22;16852;51.446;6.528;2023-08-07T10:32:20;18.00;99.90
27858;DHT22;16852;51.446;6.528;2023-08-07T10:34:22;17.80;99.90
27858;DHT22;16852;51.446;6.528;2023-08-07T10:36:23;17.80;99.90
27858;DHT22;16852;51.446;6.528;2023-08-07T10:38:23;17.70;99.90
27858;DHT22;16852;51.446;6.528;2023-08-07T10:40:24;17.60;99.90
27858;DHT22;16852;51.446;6.528;2023-08-07T10:42:27;17.60;99.90
27858;DHT22;16852;51.446;6.528;2023-08-07T10:44:30;17.70;99.90
27858;DHT22;16852;51.446;6.528;2023-08-07T10:46:48;17.70;99.90
27858;DHT22;16852;51.446;6.528;2023-08-07T10:48:54;17.90;99.90
27858;DHT22;16852;51.446;6.528;2023-08-07T10:50:58;18.00;99.90
27858;DHT22;16852;51.446;6.528;2023-08-07T10:53:03;18.10;99.90
27858;DHT22;16852;51.446;6.528;2023-08-07T10:55:13;18.30;99.90
27858;DHT22;16852;51.446;6.528;2023-08-07T10:57:15;18.40;99.90
27858;DHT22;16852;51.446;6.528;2023-08-07T10:59:15;18.50;99.90
27858;DHT22;16852;51.446;6.528;2023-08-07T11:03:26;18.60;99.90
27858;DHT22;16852;51.446;6.528;2023-08-07T11:05:27;18.60;99.90
27858;DHT22;16852;51.446;6.528;2023-08-07T11:07:29;18.60;99.90
27858;DHT22;16852;51.446;6.528;2023-08-07T11:09:30;18.60;99.90
27858;DHT22;16852;51.446;6.528;2023-08-07T11:11:37;18.60;99.90
27858;DHT22;16852;51.446;6.528;2023-08-07T11:13:40;18.60;99.90
27858;DHT22;16852;51.446;6.528;2023-08-07T11:15:40;18.50;99.90
27858;DHT22;16852;51.446;6.528;2023-08-07T11:17:41;18.40;99.90
27858;DHT22;16852;51.446;6.528;2023-08-07T11:19:42;18.30;99.90
27858;DHT22;16852;51.446;6.528;2023-08-07T11:21:43;18.30;99.90
27858;DHT22;16852;51.446;6.528;2023-08-07T11:23:44;18.30;99.90
27858;DHT22;16852;51.446;6.528;2023-08-07T11:25:46;18.30;99.90
27858;DHT22;16852;51.446;6.528;2023-08-07T11:27:46;18.40;99.90
27858;DHT22;16852;51.446;6.528;2023-08-07T11:29:48;18.40;99.90
27858;DHT22;16852;51.446;6.528;2023-08-07T11:31:52;18.50;99.90
27858;DHT22;16852;51.446;6.528;2023-08-07T11:33:59;18.60;99.90
27858;DHT22;16852;51.446;6.528;2023-08-07T11:36:01;18.70;99.90
27858;DHT22;16852;51.446;6.528;2023-08-07T11:38:01;18.70;99.90
27858;DHT22;16852;51.446;6.528;2023-08-07T11:40:02;18.60;99.90
27858;DHT22;16852;51.446;6.528;2023-08-07T11:42:03;18.60;99.90
27858;DHT22;16852;51.446;6.528;2023-08-07T11:44:09;18.70;99.90
27858;DHT22;16852;51.446;6.528;2023-08-07T11:46:11;18.70;99.90
27858;DHT22;16852;51.446;6.528;2023-08-07T11:48:12;18.80;99.90
27858;DHT22;16852;51.446;6.528;2023-08-07T11:50:13;18.80;99.90
27858;DHT22;16852;51.446;6.528;2023-08-07T11:52:14;18.90;99.90
27858;DHT22;16852;51.446;6.528;2023-08-07T11:54:15;19.00;99.90
27858;DHT22;16852;51.446;6.528;2023-08-07T11:56:17;19.10;99.90
27858;DHT22;16852;51.446;6.528;2023-08-07T11:58:18;19.20;99.90
27858;DHT22;16852;51.446;6.528;2023-08-07T12:00:19;19.30;99.90
27858;DHT22;16852;51.446;6.528;2023-08-07T12:02:26;19.30;99.90
27858;DHT22;16852;51.446;6.528;2023-08-07T12:04:31;19.40;99.90
27858;DHT22;16852;51.446;6.528;2023-08-07T12:06:36;19.40;99.90
27858;DHT22;16852;51.446;6.528;2023-08-07T12:08:40;19.40;99.90
27858;DHT22;16852;51.446;6.528;2023-08-07T12:10:41;19.40;99.90
27858;DHT22;16852;51.446;6.528;2023-08-07T12:12:43;19.50;99.90
27858;DHT22;16852;51.446;6.528;2023-08-07T12:14:44;19.50;99.90
27858;DHT22;16852;51.446;6.528;2023-08-07T12:16:45;19.50;99.90
27858;DHT22;16852;51.446;6.528;2023-08-07T12:18:51;19.50;99.90
27858;DHT22;16852;51.446;6.528;2023-08-07T12:21:06;19.50;99.90
27858;DHT22;16852;51.446;6.528;2023-08-07T12:23:13;19.50;99.90
27858;DHT22;16852;51.446;6.528;2023-08-07T12:25:14;19.50;99.90
27858;DHT22;16852;51.446;6.528;2023-08-07T12:27:15;19.40;99.90
27858;DHT22;16852;51.446;6.528;2023-08-07T12:29:16;19.40;99.90
27858;DHT22;16852;51.446;6.528;2023-08-07T12:31:17;19.40;99.90
27858;DHT22;16852;51.446;6.528;2023-08-07T12:33:18;19.40;99.90
27858;DHT22;16852;51.446;6.528;2023-08-07T12:35:19;19.40;99.90
27858;DHT22;16852;51.446;6.528;2023-08-07T12:37:19;19.30;99.90
27858;DHT22;16852;51.446;6.528;2023-08-07T12:39:20;19.30;99.90
27858;DHT22;16852;51.446;6.528;2023-08-07T12:41:21;19.30;99.90
27858;DHT22;16852;51.446;6.528;2023-08-07T12:43:22;19.40;99.90
27858;DHT22;16852;51.446;6.528;2023-08-07T12:45:23;19.40;99.90
27858;DHT22;16852;51.446;6.528;2023-08-07T12:47:23;19.50;99.90
27858;DHT22;16852;51.446;6.528;2023-08-07T12:49:24;19.50;99.90